Time;durP1;ratioP1;P1;durP2;ratioP2;P2;SDS_P1;SDS_P2;PMS_P1;PMS_P2;Temp;Humidity;BMP_temperature;BMP_pressure;BME280_temperature;BME280_humidity;BME280_pressure;Samples;Min_cycle;Max_cycle;Signal;HPM_P1;HPM_P2
2023/03/03 00:00:52;;;;;;;;;54.75;42.75;;;;;5.48;92.50;101914.13;5035400;28;45388;-82
2023/03/03 00:03:23;;;;;;;;;50.25;38.50;;;;;5.46;94.95;101913.25;5034529;28;46011;-82
2023/03/03 00:05:49;;;;;;;;;61.50;39.50;;;;;5.39;95.01;101913.19;5034499;28;45611;-82
2023/03/03 00:08:14;;;;;;;;;50.00;39.75;;;;;5.38;93.40;101905.44;5035135;28;45426;-82
2023/03/03 00:10:39;;;;;;;;;48.50;39.50;;;;;5.39;93.41;101914.94;5034570;28;65810;-82
2023/03/03 00:13:20;;;;;;;;;57.25;38.50;;;;;5.41;93.25;101915.81;5035586;28;45384;-82
2023/03/03 00:15:45;;;;;;;;;56.75;43.50;;;;;5.38;93.57;101908.88;5034301;28;45450;-82
2023/03/03 00:18:29;;;;;;;;;45.50;35.75;;;;;5.37;94.04;101914.91;5035159;28;46575;-82
2023/03/03 00:21:00;;;;;;;;;51.00;32.75;;;;;5.35;94.71;101916.59;5034080;28;45820;-82
2023/03/03 00:23:30;;;;;;;;;54.50;39.00;;;;;5.36;93.53;101905.41;5035201;28;45376;-82
2023/03/03 00:25:57;;;;;;;;;59.00;40.50;;;;;5.37;93.82;101907.16;5035492;28;45320;-82
2023/03/03 00:28:31;;;;;;;;;55.25;41.25;;;;;5.38;94.21;101906.28;5035267;28;45356;-82
2023/03/03 00:30:59;;;;;;;;;42.75;37.00;;;;;5.36;96.86;101912.28;5034102;28;45298;-82
2023/03/03 00:33:31;;;;;;;;;56.25;38.25;;;;;5.32;94.50;101913.13;5035542;28;45386;-82
2023/03/03 00:36:09;;;;;;;;;49.25;37.75;;;;;5.32;94.81;101913.13;5035451;28;45577;-82
2023/03/03 00:38:35;;;;;;;;;53.00;35.50;;;;;5.30;95.01;101915.69;5033747;28;46285;-82
2023/03/03 00:41:03;;;;;;;;;54.00;38.75;;;;;5.26;96.43;101916.50;5035206;28;45374;-82
2023/03/03 00:43:34;;;;;;;;;42.25;30.25;;;;;5.20;94.93;101916.41;5034106;28;45358;-82
2023/03/03 00:46:00;;;;;;;;;46.75;37.25;;;;;5.17;94.83;101904.34;5033932;28;45513;-82
2023/03/03 00:48:45;;;;;;;;;47.00;37.25;;;;;5.18;94.62;101913.81;5033608;28;48253;-82
2023/03/03 00:51:31;;;;;;;;;59.25;39.75;;;;;5.16;94.82;101912.94;5037112;28;45404;-82
2023/03/03 00:53:58;;;;;;;;;51.50;39.50;;;;;5.14;95.63;101911.16;5054162;28;45372;-82
2023/03/03 00:56:23;;;;;;;;;48.50;38.50;;;;;5.10;96.67;101912.84;5038734;28;45403;-82
2023/03/03 00:58:50;;;;;;;;;53.25;38.00;;;;;5.03;95.88;101906.75;5038547;28;45436;-83
2023/03/03 01:01:16;;;;;;;;;53.50;39.00;;;;;4.98;96.54;101916.16;5038313;28;45923;-82
2023/03/03 01:03:42;;;;;;;;;55.25;37.75;;;;;4.92;98.28;101910.91;5037367;28;45415;-82
2023/03/03 01:06:08;;;;;;;;;41.25;32.75;;;;;4.85;98.43;101914.25;5036861;28;45696;-82
2023/03/03 01:08:33;;;;;;;;;52.25;37.75;;;;;4.83;97.75;101914.22;5038349;28;45941;-82
2023/03/03 01:11:03;;;;;;;;;48.75;36.00;;;;;4.79;98.38;101922.78;5037935;28;55150;-82
2023/03/03 01:13:32;;;;;;;;;52.75;33.50;;;;;4.78;98.54;101920.16;5036990;28;45422;-82
2023/03/03 01:15:59;;;;;;;;;49.75;39.75;;;;;4.75;98.76;101923.56;5036892;28;45471;-82
2023/03/03 01:18:25;;;;;;;;;56.00;39.00;;;;;4.74;98.82;101920.97;5036961;28;45546;-82
2023/03/03 01:20:51;;;;;;;;;54.00;37.75;;;;;4.70;100.00;101926.91;5036612;28;45877;-82
2023/03/03 01:23:16;;;;;;;;;55.75;39.00;;;;;4.65;99.56;101925.16;5036339;28;61067;-82
2023/03/03 01:25:41;;;;;;;;;45.25;37.25;;;;;4.64;100.00;101931.16;5038080;28;45566;-82
2023/03/03 01:28:07;;;;;;;;;48.50;40.75;;;;;4.63;100.00;101921.69;5036240;28;60982;-82
2023/03/03 01:30:33;;;;;;;;;55.00;42.25;;;;;4.64;100.00;101930.28;5038063;28;45311;-82
2023/03/03 01:32:59;;;;;;;;;57.75;45.50;;;;;4.63;100.00;101924.25;5038101;28;45411;-82
2023/03/03 01:35:24;;;;;;;;;48.50;35.00;;;;;4.67;100.00;101924.31;5037765;28;45382;-82
2023/03/03 01:37:49;;;;;;;;;53.50;35.50;;;;;4.68;99.70;101926.91;5037982;28;45379;-81
2023/03/03 01:40:21;;;;;;;;;56.75;40.50;;;;;4.72;99.74;101930.38;5035730;28;65511;-82
2023/03/03 01:42:47;;;;;;;;;53.25;42.50;;;;;4.73;100.00;101926.97;5036832;28;45327;-82
2023/03/03 01:45:15;;;;;;;;;47.25;34.00;;;;;4.71;100.00;101916.63;5037062;28;65229;-82
2023/03/03 01:48:04;;;;;;;;;42.00;34.25;;;;;4.68;100.00;101920.88;5037584;28;45568;-82
2023/03/03 01:50:47;;;;;;;;;56.50;43.75;;;;;4.65;100.00;101911.41;5026406;28;45978;-82
2023/03/03 01:53:36;;;;;;;;;57.25;38.00;;;;;4.61;100.00;101915.63;5000249;28;45456;-82
2023/03/03 01:56:05;;;;;;;;;57.50;36.50;;;;;4.61;100.00;101909.63;5000172;28;45382;-82
2023/03/03 01:58:37;;;;;;;;;39.50;27.75;;;;;4.59;100.00;101914.75;4999873;28;46343;-82
2023/03/03 02:01:07;;;;;;;;;56.75;36.50;;;;;4.58;100.00;101917.31;4999653;28;45401;-82
2023/03/03 02:03:33;;;;;;;;;57.00;39.25;;;;;4.52;100.00;101915.50;5016894;28;45515;-82
2023/03/03 02:06:03;;;;;;;;;57.75;41.75;;;;;4.50;100.00;101912.03;4999528;28;45401;-82
2023/03/03 02:08:36;;;;;;;;;58.00;38.75;;;;;4.50;100.00;101912.03;4999701;28;45509;-82
2023/03/03 02:11:03;;;;;;;;;49.00;30.50;;;;;4.53;100.00;101919.84;4999762;28;45960;-82
2023/03/03 02:13:29;;;;;;;;;52.00;40.00;;;;;4.54;100.00;101912.94;4999945;28;45343;-82
2023/03/03 02:15:55;;;;;;;;;53.00;40.00;;;;;4.54;100.00;101915.53;5031073;28;63470;-82
2023/03/03 02:18:20;;;;;;;;;56.00;37.50;;;;;4.51;100.00;101908.59;5019849;28;45421;-82
2023/03/03 02:21:09;;;;;;;;;38.50;34.00;;;;;4.52;100.00;101905.19;5019126;28;45447;-82
2023/03/03 02:23:50;;;;;;;;;41.25;32.25;;;;;4.49;100.00;101912.88;5020003;28;45421;-82
2023/03/03 02:26:19;;;;;;;;;50.50;39.00;;;;;4.48;100.00;101913.72;5037267;28;45382;-82
2023/03/03 02:28:44;;;;;;;;;47.50;39.50;;;;;4.45;100.00;101911.94;5019430;28;45511;-82
2023/03/03 02:31:14;;;;;;;;;53.75;44.50;;;;;4.44;100.00;101911.94;5037282;28;45480;-82
2023/03/03 02:33:41;;;;;;;;;50.50;38.50;;;;;4.42;100.00;101906.78;5019393;28;45408;-82
2023/03/03 02:36:11;;;;;;;;;53.00;35.75;;;;;4.44;100.00;101907.66;5037202;28;45271;-82
2023/03/03 02:38:43;;;;;;;;;52.00;37.75;;;;;4.42;100.00;101900.72;5019125;28;45441;-82
2023/03/03 02:41:33;;;;;;;;;31.25;23.75;;;;;4.41;100.00;101906.75;5019214;28;45418;-81
2023/03/03 02:44:01;;;;;;;;;51.00;29.75;;;;;4.38;100.00;101899.84;5037166;28;45396;-82
2023/03/03 02:46:27;;;;;;;;;49.25;38.00;;;;;4.34;100.00;101899.75;5036918;28;45334;-82
2023/03/03 02:48:53;;;;;;;;;62.25;43.50;;;;;4.35;100.00;101906.66;5028935;28;45458;-82
2023/03/03 02:51:18;;;;;;;;;57.50;43.25;;;;;4.35;100.00;101914.38;5035752;28;67122;-82
2023/03/03 02:53:44;;;;;;;;;43.50;29.50;;;;;4.36;100.00;101910.94;5036884;28;45301;-82
2023/03/03 02:56:09;;;;;;;;;56.00;37.50;;;;;4.37;100.00;101905.81;5035518;28;45314;-82
2023/03/03 02:58:35;;;;;;;;;51.50;38.25;;;;;4.35;100.00;101911.81;5036228;28;57444;-82
2023/03/03 03:01:01;;;;;;;;;64.00;46.25;;;;;4.31;100.00;101910.00;5036613;28;45354;-82
2023/03/03 03:03:26;;;;;;;;;47.00;37.00;;;;;4.30;100.00;101911.72;5036356;28;45364;-82
2023/03/03 03:05:52;;;;;;;;;57.75;42.50;;;;;4.31;100.00;101904.84;5035382;28;45301;-82
2023/03/03 03:08:17;;;;;;;;;65.00;39.75;;;;;4.31;100.00;101903.16;5034447;28;66378;-82
2023/03/03 03:10:42;;;;;;;;;51.25;44.25;;;;;4.28;100.00;101904.81;5035781;28;60442;-81
2023/03/03 03:13:08;;;;;;;;;56.75;45.00;;;;;4.24;100.00;101911.63;5034501;28;63931;-82
2023/03/03 03:15:34;;;;;;;;;66.25;45.75;;;;;4.22;100.00;101903.00;5035559;28;58426;-82
2023/03/03 03:18:00;;;;;;;;;47.75;35.75;;;;;4.17;100.00;101902.06;5035816;28;45686;-82
2023/03/03 03:20:25;;;;;;;;;66.25;41.00;;;;;4.11;100.00;101904.56;5035587;28;64826;-82
2023/03/03 03:22:50;;;;;;;;;53.00;43.25;;;;;4.02;100.00;101900.97;5035919;28;54420;-82
2023/03/03 03:25:16;;;;;;;;;67.00;42.75;;;;;4.00;100.00;101901.78;5035767;28;62419;-82
2023/03/03 03:27:41;;;;;;;;;58.00;45.00;;;;;3.95;100.00;101898.25;5034282;28;63892;-82
2023/03/03 03:30:07;;;;;;;;;49.00;38.50;;;;;3.91;100.00;101897.34;5035298;28;67360;-82
2023/03/03 03:32:33;;;;;;;;;43.50;38.00;;;;;3.90;100.00;101900.78;5035890;28;45415;-81
2023/03/03 03:34:58;;;;;;;;;54.75;42.00;;;;;3.86;100.00;101898.97;5036226;28;45392;-82
2023/03/03 03:37:23;;;;;;;;;43.00;35.00;;;;;3.85;100.00;101899.81;5035359;28;64324;-82
2023/03/03 03:39:49;;;;;;;;;47.50;34.50;;;;;3.85;100.00;101917.84;5035856;28;46048;-82
2023/03/03 03:42:14;;;;;;;;;55.75;37.25;;;;;3.84;100.00;101905.81;5035999;28;45379;-82
2023/03/03 03:44:39;;;;;;;;;46.75;33.75;;;;;3.83;100.00;101922.97;5035979;28;45347;-82
2023/03/03 03:47:05;;;;;;;;;56.25;40.00;;;;;3.85;100.00;101915.28;5035305;28;55532;-82
2023/03/03 03:49:30;;;;;;;;;63.50;42.50;;;;;3.86;100.00;101914.41;5032514;28;67051;-82
2023/03/03 03:51:56;;;;;;;;;44.50;36.50;;;;;3.84;100.00;101914.38;5015394;28;58706;-82
2023/03/03 03:54:21;;;;;;;;;47.25;33.50;;;;;3.84;100.00;101921.25;5015966;28;45353;-82
2023/03/03 03:56:47;;;;;;;;;59.25;45.75;;;;;3.83;100.00;101922.97;5014936;28;70064;-82
2023/03/03 03:59:12;;;;;;;;;52.50;35.25;;;;;3.82;100.00;101928.09;5015130;28;63961;-82
2023/03/03 04:01:37;;;;;;;;;45.00;43.50;;;;;3.78;100.00;101931.47;5015437;28;45490;-82
2023/03/03 04:04:03;;;;;;;;;54.75;42.00;;;;;3.78;100.00;101928.88;5015575;28;50270;-81
2023/03/03 04:06:29;;;;;;;;;45.25;39.50;;;;;3.76;100.00;101923.69;5015689;28;47496;-82
2023/03/03 04:08:54;;;;;;;;;52.25;40.50;;;;;3.79;100.00;101923.75;5015618;28;45488;-81
2023/03/03 04:11:20;;;;;;;;;48.50;36.75;;;;;3.79;100.00;101923.75;5015778;28;45452;-82
2023/03/03 04:13:45;;;;;;;;;57.25;39.50;;;;;3.80;100.00;101925.47;5015163;28;62029;-82
2023/03/03 04:16:10;;;;;;;;;57.75;38.25;;;;;3.83;100.00;101929.84;5012985;28;57373;-82
2023/03/03 04:18:36;;;;;;;;;55.00;38.00;;;;;3.83;100.00;101933.28;5017708;28;45382;-82
2023/03/03 04:21:01;;;;;;;;;44.50;37.75;;;;;3.85;100.00;101928.16;5035637;28;45224;-82
2023/03/03 04:23:26;;;;;;;;;50.25;37.75;;;;;3.86;100.00;101929.88;5034626;28;64454;-82
2023/03/03 04:25:52;;;;;;;;;52.75;38.00;;;;;3.86;100.00;101940.19;5036648;28;67634;-82
2023/03/03 04:28:17;;;;;;;;;45.50;33.50;;;;;3.83;100.00;101932.41;5038006;28;66929;-82
2023/03/03 04:30:44;;;;;;;;;48.00;41.00;;;;;3.83;100.00;101937.56;5038512;28;48686;-82
2023/03/03 04:33:09;;;;;;;;;44.25;33.50;;;;;3.78;100.00;101941.75;5038968;28;45381;-82
2023/03/03 04:35:35;;;;;;;;;36.25;24.50;;;;;3.74;100.00;101938.25;5038486;28;55364;-82
2023/03/03 04:38:00;;;;;;;;;39.25;30.00;;;;;3.72;100.00;101946.81;5020999;28;45314;-82
2023/03/03 04:40:26;;;;;;;;;54.00;37.00;;;;;3.69;100.00;101942.44;5038090;28;61460;-82
2023/03/03 04:42:52;;;;;;;;;49.25;39.50;;;;;3.68;100.00;101945.88;5020962;28;45345;-82
2023/03/03 04:45:17;;;;;;;;;49.25;41.25;;;;;3.69;100.00;101945.88;5037444;28;69812;-82
2023/03/03 04:47:42;;;;;;;;;55.00;39.75;;;;;3.70;100.00;101944.19;5038467;28;45495;-82
2023/03/03 04:50:09;;;;;;;;;59.75;43.00;;;;;3.71;100.00;101940.75;5031406;28;45388;-82
2023/03/03 04:52:34;;;;;;;;;42.00;33.00;;;;;3.71;100.00;101942.47;5018362;28;45638;-82
2023/03/03 04:54:59;;;;;;;;;45.00;36.25;;;;;3.71;100.00;101948.50;5018546;28;45381;-82
2023/03/03 04:57:25;;;;;;;;;50.75;35.50;;;;;3.72;100.00;101951.97;5017861;28;66671;-82
2023/03/03 04:59:51;;;;;;;;;49.00;39.25;;;;;3.71;100.00;101940.75;5018231;28;45315;-81
2023/03/03 05:02:16;;;;;;;;;58.50;39.25;;;;;3.68;100.00;101945.88;5018039;28;58538;-82
2023/03/03 05:04:42;;;;;;;;;46.00;40.00;;;;;3.66;100.00;101942.41;5000648;28;46055;-82
2023/03/03 05:07:07;;;;;;;;;49.00;40.25;;;;;3.64;100.00;101942.38;5017827;28;64883;-82
2023/03/03 05:09:33;;;;;;;;;45.00;35.00;;;;;3.59;100.00;101945.69;5000838;28;45354;-82
2023/03/03 05:11:58;;;;;;;;;62.75;40.00;;;;;3.52;100.00;101944.69;5018612;28;45323;-82
2023/03/03 05:14:24;;;;;;;;;51.25;36.75;;;;;3.46;100.00;101953.19;5019397;28;45417;-82
2023/03/03 05:16:49;;;;;;;;;59.75;44.25;;;;;3.39;100.00;101942.72;5019850;28;67044;-81
2023/03/03 05:19:14;;;;;;;;;59.25;41.75;;;;;3.35;100.00;101946.09;5038466;28;45385;-82
2023/03/03 05:21:41;;;;;;;;;54.50;39.75;;;;;3.33;100.00;101948.63;5038720;28;45495;-82
2023/03/03 05:24:10;;;;;;;;;55.00;40.00;;;;;3.28;100.00;101953.66;5038356;28;46356;-82
2023/03/03 05:26:35;;;;;;;;;33.75;18.00;;;;;3.26;100.00;101941.63;5038585;28;45323;-82
2023/03/03 05:29:00;;;;;;;;;51.50;37.50;;;;;3.25;100.00;101945.91;5037735;28;53192;-82
2023/03/03 05:31:26;;;;;;;;;44.00;34.50;;;;;3.21;100.00;101954.41;5037678;28;60654;-82
2023/03/03 05:33:52;;;;;;;;;55.25;43.25;;;;;3.22;100.00;101947.53;5020474;28;47136;-82
2023/03/03 05:36:17;;;;;;;;;64.00;41.50;;;;;3.20;100.00;101946.66;5037436;28;45883;-82
2023/03/03 05:38:43;;;;;;;;;48.50;37.25;;;;;3.16;100.00;101955.09;5037556;28;45204;-81
2023/03/03 05:41:08;;;;;;;;;42.75;30.75;;;;;3.11;100.00;101955.03;5037672;28;57377;-82
2023/03/03 05:43:34;;;;;;;;;50.75;38.50;;;;;3.07;100.00;101948.94;5037710;28;45353;-82
2023/03/03 05:45:59;;;;;;;;;56.50;39.00;;;;;3.07;100.00;101955.81;5038055;28;45442;-82
2023/03/03 05:48:25;;;;;;;;;56.75;42.25;;;;;3.07;100.00;101956.66;5037957;28;45467;-82
2023/03/03 05:50:51;;;;;;;;;55.00;37.50;;;;;3.10;100.00;101963.56;5024773;28;45390;-82
2023/03/03 05:53:16;;;;;;;;;54.75;39.50;;;;;3.09;100.00;101961.84;5017768;28;46565;-82
2023/03/03 05:55:41;;;;;;;;;47.00;35.50;;;;;3.07;100.00;101966.94;5000179;28;45383;-82
2023/03/03 05:58:07;;;;;;;;;63.00;47.00;;;;;3.05;100.00;101954.91;5016743;28;61100;-81
2023/03/03 06:00:32;;;;;;;;;57.50;44.50;;;;;3.00;100.00;101962.50;5017004;28;66209;-82
2023/03/03 06:02:57;;;;;;;;;71.50;49.50;;;;;2.97;100.00;101957.31;5017575;28;46326;-82
2023/03/03 06:05:23;;;;;;;;;56.50;45.00;;;;;2.97;100.00;101957.31;5017584;28;45294;-82
2023/03/03 06:07:48;;;;;;;;;68.75;46.25;;;;;3.01;100.00;101956.53;5017512;28;51187;-82
2023/03/03 06:10:13;;;;;;;;;61.00;43.50;;;;;3.05;100.00;101960.03;5016901;28;61973;-82
2023/03/03 06:12:40;;;;;;;;;54.25;38.75;;;;;3.09;100.00;101959.28;4999074;28;59273;-82
2023/03/03 06:15:07;;;;;;;;;57.75;45.00;;;;;3.12;100.00;101961.91;5024769;28;45884;-82
2023/03/03 06:17:32;;;;;;;;;50.75;41.50;;;;;3.13;100.00;101966.22;5037483;28;45447;-81
2023/03/03 06:19:57;;;;;;;;;58.25;42.00;;;;;3.14;100.00;101962.81;5036899;28;57450;-82
2023/03/03 06:22:23;;;;;;;;;53.75;44.25;;;;;3.13;100.00;101966.22;5036911;28;56914;-82
2023/03/03 06:24:48;;;;;;;;;52.25;35.00;;;;;3.12;100.00;101976.47;5036611;28;63742;-82
2023/03/03 06:27:13;;;;;;;;;61.50;39.75;;;;;3.08;100.00;101980.69;5036142;28;66711;-81
2023/03/03 06:29:39;;;;;;;;;55.50;32.00;;;;;3.06;100.00;101979.78;5037327;28;45421;-81
2023/03/03 06:32:04;;;;;;;;;52.50;39.50;;;;;3.09;100.00;101985.00;5036996;28;50481;-82
2023/03/03 06:34:30;;;;;;;;;53.50;42.75;;;;;3.08;100.00;101991.84;5037263;28;45433;-82
2023/03/03 06:36:55;;;;;;;;;58.50;39.75;;;;;3.10;100.00;101991.88;5036398;28;61835;-82
2023/03/03 06:39:21;;;;;;;;;58.50;40.25;;;;;3.12;100.00;101995.38;5036926;28;45377;-81
2023/03/03 06:41:46;;;;;;;;;45.50;43.00;;;;;3.17;100.00;102003.16;5036569;28;46506;-82
2023/03/03 06:44:12;;;;;;;;;48.25;41.00;;;;;3.22;100.00;102002.44;5036172;28;67743;-81
2023/03/03 06:46:37;;;;;;;;;52.75;42.00;;;;;3.27;100.00;102008.56;5037153;28;45500;-81
2023/03/03 06:49:03;;;;;;;;;67.25;48.75;;;;;3.32;100.00;102008.63;5036243;28;45299;-82
2023/03/03 06:51:38;;;;;;;;;60.50;44.50;;;;;3.36;100.00;102015.63;5018391;28;45990;-82
2023/03/03 06:54:13;;;;;;;;;52.25;40.50;;;;;3.43;100.00;102017.47;5016675;28;45338;-82
2023/03/03 06:56:40;;;;;;;;;60.50;44.00;;;;;3.49;100.00;102029.59;5017126;28;45356;-82
2023/03/03 06:59:11;;;;;;;;;56.00;43.75;;;;;3.53;100.00;102026.25;5017159;28;45434;-82
2023/03/03 07:01:37;;;;;;;;;60.75;42.25;;;;;3.56;100.00;102022.88;4999003;28;45507;-82
2023/03/03 07:04:18;;;;;;;;;71.50;43.50;;;;;3.65;100.00;102030.78;4999008;28;45404;-82
2023/03/03 07:06:43;;;;;;;;;68.75;47.00;;;;;3.68;100.00;102028.28;5016897;28;45297;-82
2023/03/03 07:09:20;;;;;;;;;66.75;48.75;;;;;3.72;100.00;102036.94;5016574;28;45208;-82
2023/03/03 07:11:45;;;;;;;;;76.00;48.50;;;;;3.76;100.00;102039.59;4998855;28;46273;-82
2023/03/03 07:14:16;;;;;;;;;74.75;48.75;;;;;3.81;100.00;102039.69;4998098;28;68245;-82
2023/03/03 07:16:41;;;;;;;;;50.75;43.00;;;;;3.87;100.00;102042.38;4979209;28;45287;-82
2023/03/03 07:19:20;;;;;;;;;53.50;39.75;;;;;3.94;100.00;102044.25;4979262;28;45265;-82
2023/03/03 07:21:46;;;;;;;;;78.50;51.25;;;;;3.97;100.00;102048.59;4978926;28;46532;-82
2023/03/03 07:24:21;;;;;;;;;54.50;30.25;;;;;3.96;100.00;102041.72;4996042;28;47346;-82
2023/03/03 07:26:46;;;;;;;;;63.25;46.50;;;;;3.97;100.00;102049.44;4996830;28;45386;-82
2023/03/03 07:29:20;;;;;;;;;64.75;47.50;;;;;3.99;100.00;102052.94;4995796;28;64517;-82
2023/03/03 07:31:47;;;;;;;;;65.75;47.00;;;;;4.04;100.00;102048.72;4978830;28;45665;-82
2023/03/03 07:34:24;;;;;;;;;61.25;47.75;;;;;4.12;100.00;102048.88;4978973;28;45488;-82
2023/03/03 07:36:53;;;;;;;;;62.00;46.00;;;;;4.17;100.00;102056.69;4996572;28;45453;-82
2023/03/03 07:39:24;;;;;;;;;66.75;43.50;;;;;4.21;100.00;102055.91;4978446;28;45348;-82
2023/03/03 07:41:50;;;;;;;;;64.75;44.75;;;;;4.25;100.00;102056.00;4996430;28;46179;-82
2023/03/03 07:44:32;;;;;;;;;64.00;49.75;;;;;4.31;100.00;102067.25;4996279;28;46016;-82
2023/03/03 07:46:59;;;;;;;;;69.25;51.75;;;;;4.32;100.00;102074.16;4978921;28;45339;-82
2023/03/03 07:49:37;;;;;;;;;60.50;44.25;;;;;4.39;100.00;102070.84;5012996;28;45272;-81
2023/03/03 07:52:22;;;;;;;;;68.25;51.50;;;;;4.45;100.00;102076.09;5035516;28;45397;-82
2023/03/03 07:54:47;;;;;;;;;71.25;50.50;;;;;4.53;100.00;102076.22;5035956;28;45482;-82
2023/03/03 07:57:22;;;;;;;;;66.00;45.75;;;;;4.61;100.00;102080.69;5035514;28;59257;-82
2023/03/03 07:59:54;;;;;;;;;50.25;41.50;;;;;4.67;100.00;102090.25;5033663;28;45634;-82
2023/03/03 08:02:22;;;;;;;;;60.50;47.25;;;;;4.74;100.00;102088.66;5034526;28;45413;-82
2023/03/03 08:04:51;;;;;;;;;54.75;46.75;;;;;4.82;100.00;102090.50;5035711;28;45986;-81
2023/03/03 08:07:18;;;;;;;;;70.75;51.50;;;;;4.87;100.00;102085.44;5035531;28;45373;-82
2023/03/03 08:09:59;;;;;;;;;61.50;45.50;;;;;4.93;100.00;102090.69;5035938;28;45345;-82
2023/03/03 08:12:33;;;;;;;;;70.25;47.50;;;;;4.99;100.00;102095.94;5035780;28;45418;-82
2023/03/03 08:15:16;;;;;;;;;59.25;44.25;;;;;5.08;100.00;102096.94;5035514;28;45824;-81
2023/03/03 08:17:44;;;;;;;;;69.75;49.25;;;;;5.16;100.00;102100.47;5034573;28;45359;-82
2023/03/03 08:20:45;;;;;;;;;70.75;46.75;;;;;5.26;100.00;102099.78;5034388;28;45522;-82
2023/03/03 08:23:12;;;;;;;;;68.00;49.25;;;;;5.32;100.00;102086.09;5033444;28;45673;-82
2023/03/03 08:25:38;;;;;;;;;66.00;48.00;;;;;5.28;100.00;102098.09;5035778;28;45726;-82
2023/03/03 08:28:03;;;;;;;;;68.75;47.00;;;;;5.22;100.00;102103.19;5036016;28;45413;-82
2023/03/03 08:30:30;;;;;;;;;76.25;52.50;;;;;5.20;100.00;102103.16;5035486;28;61517;-82
2023/03/03 08:32:56;;;;;;;;;60.75;46.00;;;;;5.18;100.00;102103.97;5035897;28;46098;-82
2023/03/03 08:35:21;;;;;;;;;66.25;44.00;;;;;5.16;100.00;102105.66;5035892;28;45344;-82
2023/03/03 08:37:46;;;;;;;;;65.25;49.50;;;;;5.18;100.00;102103.97;5034913;28;65356;-82
2023/03/03 08:40:12;;;;;;;;;63.50;47.50;;;;;5.32;100.00;102104.19;5034325;28;45366;-82
2023/03/03 08:42:37;;;;;;;;;64.00;48.00;;;;;5.43;100.00;102113.81;5033905;28;57438;-82
2023/03/03 08:45:03;;;;;;;;;60.75;45.75;;;;;5.51;100.00;102115.63;5050309;28;62896;-82
2023/03/03 08:47:28;;;;;;;;;69.75;50.75;;;;;5.59;100.00;102109.75;5035344;28;45406;-82
2023/03/03 08:49:53;;;;;;;;;65.50;44.75;;;;;5.62;100.00;102108.91;5014941;28;45410;-81
2023/03/03 08:52:19;;;;;;;;;63.50;44.00;;;;;5.62;100.00;102117.50;5015118;28;45350;-82
2023/03/03 08:54:44;;;;;;;;;71.00;47.75;;;;;5.60;100.00;102121.78;4997138;28;54208;-82
2023/03/03 08:57:09;;;;;;;;;61.50;46.00;;;;;5.59;100.00;102126.94;5014818;28;61605;-82
2023/03/03 08:59:37;;;;;;;;;74.50;45.75;;;;;5.55;100.00;102120.88;5014526;28;66864;-82
2023/03/03 09:02:04;;;;;;;;;72.50;47.25;;;;;5.50;100.00;102126.78;5015062;28;45424;-82
2023/03/03 09:04:29;;;;;;;;;57.00;44.50;;;;;5.45;100.00;102121.59;5014749;28;45425;-83
2023/03/03 09:06:54;;;;;;;;;59.00;44.50;;;;;5.38;100.00;102118.03;4997665;28;45412;-82
2023/03/03 09:09:20;;;;;;;;;65.75;44.75;;;;;5.36;100.00;102121.44;4997419;28;45504;-82
2023/03/03 09:11:46;;;;;;;;;56.25;40.75;;;;;5.36;100.00;102127.47;5016261;28;61028;-82
2023/03/03 09:14:16;;;;;;;;;67.75;48.00;;;;;5.37;100.00;102121.47;5018496;28;45355;-82
2023/03/03 09:17:02;;;;;;;;;60.50;47.25;;;;;5.40;100.00;102123.22;5000796;28;45409;-82
2023/03/03 09:19:32;;;;;;;;;47.00;40.50;;;;;5.41;100.00;102118.09;5018168;28;45393;-81
2023/03/03 09:22:08;;;;;;;;;52.75;43.00;;;;;5.48;100.00;102126.81;5033832;28;45744;-82
2023/03/03 09:24:35;;;;;;;;;64.25;46.75;;;;;5.52;100.00;102127.72;5000633;28;45469;-82
2023/03/03 09:27:01;;;;;;;;;64.75;46.25;;;;;5.56;100.00;102137.25;5018467;28;45362;-82
2023/03/03 09:29:36;;;;;;;;;72.25;47.00;;;;;5.58;100.00;102138.13;5033551;28;45337;-82
2023/03/03 09:32:26;;;;;;;;;53.00;43.00;;;;;5.60;100.00;102136.44;5018187;28;45392;-82
2023/03/03 09:34:51;;;;;;;;;66.50;46.50;;;;;5.62;100.00;102135.59;5033267;28;46222;-82
2023/03/03 09:37:26;;;;;;;;;63.25;45.00;;;;;5.70;100.00;102132.25;5033150;28;54950;-82
2023/03/03 09:39:53;;;;;;;;;56.50;38.00;;;;;5.77;100.00;102127.19;5000189;28;45412;-83
2023/03/03 09:42:28;;;;;;;;;59.75;41.75;;;;;5.84;100.00;102130.72;5018041;28;46241;-82
2023/03/03 09:45:17;;;;;;;;;61.75;40.00;;;;;5.89;100.00;102130.75;5017970;28;45391;-82
2023/03/03 09:47:52;;;;;;;;;51.00;37.25;;;;;5.91;100.00;102131.69;5035297;28;45386;-83
2023/03/03 09:50:29;;;;;;;;;45.00;37.50;;;;;5.94;100.00;102135.19;5037741;28;45465;-82
2023/03/03 09:53:24;;;;;;;;;52.50;39.25;;;;;6.01;100.00;102125.78;5036560;28;45462;-82
2023/03/03 09:55:58;;;;;;;;;51.25;36.50;;;;;6.10;100.00;102125.06;5036636;28;45811;-82
2023/03/03 09:58:35;;;;;;;;;43.00;33.75;;;;;6.15;100.00;102131.16;5037893;28;45229;-82
2023/03/03 10:01:17;;;;;;;;;64.50;44.00;;;;;6.18;100.00;102134.63;5036503;28;45457;-82
2023/03/03 10:04:04;;;;;;;;;51.75;36.75;;;;;6.20;100.00;102134.63;5037123;28;46222;-82
2023/03/03 10:06:38;;;;;;;;;57.50;45.25;;;;;6.22;100.00;102132.06;5037575;28;45365;-82
2023/03/03 10:09:36;;;;;;;;;51.25;30.75;;;;;6.24;100.00;102126.09;5037576;28;45469;-82
2023/03/03 10:12:24;;;;;;;;;50.00;35.00;;;;;6.30;100.00;102130.47;5036387;28;45594;-82
2023/03/03 10:15:02;;;;;;;;;49.00;36.50;;;;;6.42;100.00;102140.06;5036097;28;45484;-82
2023/03/03 10:17:53;;;;;;;;;45.50;35.25;;;;;6.52;100.00;102144.47;5035849;28;45907;-82
2023/03/03 10:20:29;;;;;;;;;55.25;38.75;;;;;6.61;100.00;102152.31;5036074;28;45397;-82
2023/03/03 10:22:58;;;;;;;;;49.00;36.50;;;;;6.74;100.00;102151.59;5036748;28;45332;-83
2023/03/03 10:25:52;;;;;;;;;49.75;34.25;;;;;6.85;100.00;102151.69;5037213;28;45395;-82
2023/03/03 10:28:49;;;;;;;;;37.50;32.50;;;;;7.02;100.00;102150.97;5036119;28;45909;-82
2023/03/03 10:31:33;;;;;;;;;47.50;40.00;;;;;7.15;100.00;102163.16;5036889;28;45486;-82
2023/03/03 10:34:23;;;;;;;;;46.50;36.25;;;;;7.22;100.00;102157.19;5037369;28;45438;-82
2023/03/03 10:36:55;;;;;;;;;48.00;42.00;;;;;7.28;100.00;102156.34;5035940;28;45516;-82
2023/03/03 10:39:29;;;;;;;;;47.75;36.25;;;;;7.36;99.81;102157.28;5037076;28;45893;-82
2023/03/03 10:42:19;;;;;;;;;49.00;39.00;;;;;7.44;99.63;102158.19;5037125;28;45410;-82
2023/03/03 10:44:51;;;;;;;;;43.50;36.75;;;;;7.55;98.93;102163.47;5035763;28;45321;-82
2023/03/03 10:47:35;;;;;;;;;43.25;28.75;;;;;7.61;98.06;102158.31;5035392;28;45544;-82
2023/03/03 10:50:18;;;;;;;;;43.25;31.00;;;;;7.67;97.27;102155.78;5036648;28;45309;-83
2023/03/03 10:53:05;;;;;;;;;31.50;24.25;;;;;7.74;97.17;102159.25;5035654;28;45373;-82
2023/03/03 10:55:45;;;;;;;;;42.00;28.00;;;;;7.81;96.42;102157.56;5037135;28;45282;-83
2023/03/03 10:58:15;;;;;;;;;51.00;31.75;;;;;7.86;96.45;102155.88;5036719;28;46254;-83
2023/03/03 11:00:45;;;;;;;;;43.75;27.25;;;;;7.95;96.12;102161.97;5035266;28;45476;-83
2023/03/03 11:03:32;;;;;;;;;40.75;30.00;;;;;8.04;95.62;102158.56;5035735;28;45484;-82
2023/03/03 11:05:59;;;;;;;;;43.75;29.75;;;;;8.18;95.62;102160.34;5036715;28;45440;-82
2023/03/03 11:08:41;;;;;;;;;42.75;29.00;;;;;8.30;95.04;102156.06;5036476;28;46342;-82
2023/03/03 11:11:27;;;;;;;;;39.00;28.25;;;;;8.45;94.42;102156.97;5035548;28;45897;-82
2023/03/03 11:14:05;;;;;;;;;39.50;30.50;;;;;8.63;94.35;102162.22;5036764;28;45294;-82
2023/03/03 11:16:59;;;;;;;;;37.50;29.75;;;;;8.83;93.53;102151.84;5034896;28;45357;-82
2023/03/03 11:19:34;;;;;;;;;27.50;27.50;;;;;9.00;92.55;102151.88;5035360;28;45409;-82
2023/03/03 11:21:59;;;;;;;;;33.25;28.00;;;;;9.16;92.48;102146.69;5036457;28;45771;-82
2023/03/03 11:24:28;;;;;;;;;24.67;20.67;;;;;9.34;91.99;102138.84;5036443;28;45262;-83